Time;durP1;ratioP1;P1;durP2;ratioP2;P2;SDS_P1;SDS_P2;PMS_P1;PMS_P2;Temp;Humidity;BMP_temperature;BMP_pressure;BME280_temperature;BME280_humidity;BME280_pressure;Samples;Min_cycle;Max_cycle;Signal;HPM_P1;HPM_P2
2022/07/20 00:00:33;;;;;;;7.43;4.78;;;23.70;62.50;;;;;;5087134;28;20032;-87
2022/07/20 00:03:08;;;;;;;6.30;4.50;;;23.60;62.60;;;;;;5090591;28;20027;-87
2022/07/20 00:05:33;;;;;;;4.85;4.32;;;23.50;62.80;;;;;;5087510;28;20055;-86
2022/07/20 00:07:59;;;;;;;8.55;5.22;;;23.40;63.00;;;;;;5084846;28;20055;-87
2022/07/20 00:13:11;;;;;;;7.43;5.47;;;23.30;63.10;;;;;;5081525;28;20086;-86
2022/07/20 00:15:37;;;;;;;10.43;5.65;;;23.30;64.20;;;;;;5071498;28;20056;-84
2022/07/20 00:18:03;;;;;;;8.27;5.80;;;23.30;64.00;;;;;;5083259;28;20020;-86
2022/07/20 00:20:29;;;;;;;9.70;5.35;;;23.20;63.60;;;;;;5087960;28;20035;-77
2022/07/20 00:22:56;;;;;;;8.38;6.03;;;23.20;63.70;;;;;;5088400;28;20396;-87
2022/07/20 00:25:21;;;;;;;9.15;5.43;;;23.20;64.20;;;;;;5088133;28;20112;-88
2022/07/20 00:27:47;;;;;;;10.23;6.45;;;23.10;64.20;;;;;;5078248;28;20594;-88
2022/07/20 00:30:13;;;;;;;8.82;5.63;;;23.10;64.40;;;;;;5084431;28;20470;-87
2022/07/20 00:32:40;;;;;;;8.63;5.40;;;23.00;64.50;;;;;;5071016;28;20062;-87
2022/07/20 00:35:07;;;;;;;6.10;5.13;;;22.90;64.90;;;;;;5086205;28;20094;-85
2022/07/20 00:37:33;;;;;;;5.70;5.10;;;22.80;65.20;;;;;;5088452;28;20077;-86
2022/07/20 00:39:59;;;;;;;8.35;4.88;;;22.70;65.40;;;;;;5080209;28;20036;-87
2022/07/20 00:42:25;;;;;;;7.55;5.55;;;22.70;65.90;;;;;;5085161;28;20032;-87
2022/07/20 00:44:50;;;;;;;8.77;5.25;;;22.60;66.10;;;;;;5084822;28;20034;-87
2022/07/20 00:47:16;;;;;;;9.02;5.45;;;22.50;66.30;;;;;;5084646;28;20357;-83
2022/07/20 00:49:42;;;;;;;6.90;5.13;;;22.50;66.60;;;;;;5079428;28;20024;-88
2022/07/20 00:52:08;;;;;;;5.75;4.47;;;22.40;66.70;;;;;;5083128;28;20032;-87
2022/07/20 00:54:34;;;;;;;6.90;4.57;;;22.30;67.50;;;;;;5088146;28;20023;-85
2022/07/20 00:57:00;;;;;;;6.57;4.32;;;22.30;67.20;;;;;;5082832;28;20103;-87
2022/07/20 00:59:26;;;;;;;5.65;4.72;;;22.20;67.40;;;;;;5087165;28;20024;-87
2022/07/20 01:01:52;;;;;;;8.77;5.03;;;22.20;67.40;;;;;;5078568;28;20031;-87
2022/07/20 01:04:18;;;;;;;5.75;4.85;;;22.10;67.20;;;;;;5073848;28;20046;-89
2022/07/20 01:06:43;;;;;;;6.40;4.95;;;22.10;67.40;;;;;;5098547;28;20036;-87
2022/07/20 01:09:09;;;;;;;5.32;4.50;;;22.10;67.40;;;;;;5084545;28;20037;-87
2022/07/20 01:11:35;;;;;;;9.10;5.05;;;22.10;67.60;;;;;;5087212;28;20032;-82
2022/07/20 01:14:06;;;;;;;8.30;4.53;;;22.10;67.60;;;;;;5080902;28;20107;-87
2022/07/20 01:16:33;;;;;;;7.30;4.35;;;22.10;67.60;;;;;;5094356;27;20066;-78
2022/07/20 01:18:59;;;;;;;6.40;4.53;;;22.10;67.60;;;;;;5108098;28;20028;-87
2022/07/20 01:21:25;;;;;;;10.40;4.60;;;22.00;67.60;;;;;;5105588;28;20024;-84
2022/07/20 01:23:50;;;;;;;6.60;4.50;;;22.00;68.00;;;;;;5095680;28;20830;-87
2022/07/20 01:26:17;;;;;;;7.47;4.10;;;22.00;67.90;;;;;;5116098;28;20033;-86
2022/07/20 01:28:43;;;;;;;5.47;4.25;;;21.90;68.00;;;;;;5108463;28;20043;-83
2022/07/20 01:31:09;;;;;;;7.45;4.65;;;21.90;68.20;;;;;;5111703;28;20513;-87
2022/07/20 01:33:35;;;;;;;6.88;4.00;;;21.80;68.20;;;;;;5110698;28;20032;-77
2022/07/20 01:36:00;;;;;;;4.90;4.00;;;21.80;68.20;;;;;;5118256;28;20036;-85
2022/07/20 01:38:26;;;;;;;7.40;4.72;;;21.80;68.40;;;;;;5109570;28;20032;-87
2022/07/20 01:40:52;;;;;;;7.05;4.30;;;21.70;68.60;;;;;;5100630;28;20036;-82
2022/07/20 01:43:17;;;;;;;7.43;4.55;;;21.70;68.70;;;;;;5112091;28;20427;-89
2022/07/20 01:45:43;;;;;;;4.85;4.18;;;21.60;68.90;;;;;;5113506;28;20396;-86
2022/07/20 01:48:09;;;;;;;5.70;3.65;;;21.60;69.00;;;;;;5096685;28;20051;-85
2022/07/20 01:50:36;;;;;;;6.43;4.40;;;21.50;69.20;;;;;;5111702;28;20076;-81
2022/07/20 01:53:02;;;;;;;5.80;4.03;;;21.50;69.60;;;;;;5112694;28;20055;-90
2022/07/20 01:55:28;;;;;;;7.30;3.92;;;21.40;69.70;;;;;;5114475;28;20031;-88
2022/07/20 01:57:54;;;;;;;5.25;4.00;;;21.40;69.70;;;;;;5106134;28;20208;-88
2022/07/20 02:00:20;;;;;;;7.55;4.90;;;21.40;69.70;;;;;;5117576;28;20089;-88
2022/07/20 02:02:46;;;;;;;5.70;4.07;;;21.30;69.70;;;;;;5109371;28;20035;-87
2022/07/20 02:05:11;;;;;;;4.75;4.25;;;21.30;69.80;;;;;;5116255;28;20026;-88
2022/07/20 02:07:38;;;;;;;6.80;4.43;;;21.30;70.20;;;;;;5118039;28;20031;-80
2022/07/20 02:10:08;;;;;;;4.53;4.13;;;21.20;70.20;;;;;;5114235;28;20024;-89
2022/07/20 02:12:35;;;;;;;6.65;4.05;;;21.20;70.00;;;;;;5096088;28;20066;-77
2022/07/20 02:15:01;;;;;;;7.00;3.85;;;21.20;70.00;;;;;;5096137;28;20035;-85
2022/07/20 02:17:26;;;;;;;4.88;4.10;;;21.20;70.00;;;;;;5114612;28;20028;-87
2022/07/20 02:19:52;;;;;;;8.82;4.35;;;21.20;70.10;;;;;;5116753;28;20152;-90
2022/07/20 02:22:18;;;;;;;8.13;4.50;;;21.20;70.10;;;;;;5115516;28;20100;-84
2022/07/20 02:24:43;;;;;;;4.82;3.70;;;21.20;70.30;;;;;;5108380;28;20035;-89
2022/07/20 02:27:09;;;;;;;6.47;3.95;;;21.20;70.00;;;;;;5113810;28;20032;-89
2022/07/20 02:29:34;;;;;;;5.80;3.85;;;21.20;69.90;;;;;;5114312;27;20358;-80
2022/07/20 02:32:00;;;;;;;4.45;3.75;;;21.20;69.80;;;;;;5105552;28;20040;-84
2022/07/20 02:34:26;;;;;;;5.13;3.88;;;21.20;69.80;;;;;;5103218;28;20027;-84
2022/07/20 02:36:51;;;;;;;5.75;4.05;;;21.20;69.90;;;;;;5103663;28;20058;-83
2022/07/20 02:39:17;;;;;;;4.43;3.50;;;21.20;70.20;;;;;;5106482;28;20028;-91
2022/07/20 02:41:42;;;;;;;4.85;3.58;;;21.20;70.50;;;;;;5110151;28;20415;-90
2022/07/20 02:44:08;;;;;;;6.68;3.97;;;21.10;71.00;;;;;;5111828;28;20430;-84
2022/07/20 02:46:34;;;;;;;5.82;3.78;;;21.00;71.30;;;;;;5107626;28;20038;-89
2022/07/20 02:48:59;;;;;;;9.38;3.53;;;20.90;71.40;;;;;;5106293;28;20032;-89
2022/07/20 02:51:25;;;;;;;6.10;4.13;;;20.90;71.30;;;;;;5091677;28;20141;-87
2022/07/20 02:53:50;;;;;;;6.05;4.13;;;20.90;71.30;;;;;;5108338;28;20472;-83
2022/07/20 02:56:16;;;;;;;7.25;4.20;;;20.90;71.50;;;;;;5103216;28;20042;-88
2022/07/20 02:58:42;;;;;;;8.18;4.57;;;20.90;71.70;;;;;;5087230;28;20020;-87
2022/07/20 03:01:07;;;;;;;5.47;3.95;;;20.90;71.80;;;;;;5105674;28;20388;-87
2022/07/20 03:03:33;;;;;;;5.63;3.90;;;20.80;71.90;;;;;;5105899;28;20545;-87
2022/07/20 03:06:00;;;;;;;5.65;3.67;;;20.80;72.10;;;;;;5111242;28;20020;-87
2022/07/20 03:08:26;;;;;;;3.95;3.55;;;20.70;72.30;;;;;;5101456;28;20116;-87
2022/07/20 03:10:51;;;;;;;5.93;4.15;;;20.70;72.50;;;;;;5095626;28;20075;-87
2022/07/20 03:13:17;;;;;;;6.97;3.90;;;20.70;72.80;;;;;;5104537;28;20028;-87
2022/07/20 03:15:43;;;;;;;8.30;4.18;;;20.60;73.00;;;;;;5107076;28;20047;-87
2022/07/20 03:18:08;;;;;;;15.18;5.25;;;20.60;73.00;;;;;;5109989;28;20028;-88
2022/07/20 03:20:34;;;;;;;7.72;3.80;;;20.50;72.90;;;;;;5106664;28;20062;-87
2022/07/20 03:23:00;;;;;;;7.03;4.20;;;20.60;72.80;;;;;;5119460;28;20074;-82
2022/07/20 03:25:26;;;;;;;5.28;3.92;;;20.60;72.70;;;;;;5109880;28;20037;-83
2022/07/20 03:27:56;;;;;;;6.53;4.30;;;20.60;72.70;;;;;;5130051;28;20025;-87
2022/07/20 03:30:23;;;;;;;6.95;3.80;;;20.60;73.00;;;;;;5128639;28;20361;-81
2022/07/20 03:32:49;;;;;;;4.85;3.80;;;20.60;73.10;;;;;;5123790;28;20076;-87
2022/07/20 03:35:15;;;;;;;6.13;3.50;;;20.50;73.30;;;;;;5111621;28;20042;-88
2022/07/20 03:37:41;;;;;;;5.78;3.65;;;20.40;73.50;;;;;;5106639;28;20066;-79
2022/07/20 03:40:07;;;;;;;5.20;3.80;;;20.40;73.70;;;;;;5105650;28;20028;-82
2022/07/20 03:42:33;;;;;;;4.32;3.65;;;20.40;74.40;;;;;;5098574;28;20524;-85
2022/07/20 03:44:59;;;;;;;9.77;4.13;;;;;;;;;;5101496;28;20127;-88
2022/07/20 03:47:25;;;;;;;6.30;4.30;;;;;;;;;;5109946;28;20084;-87
2022/07/20 03:49:52;;;;;;;4.95;4.00;;;;;;;;;;5108997;27;20024;-88
2022/07/20 03:52:18;;;;;;;3.97;3.58;;;;;;;;;;5102825;28;20031;-87
2022/07/20 03:54:45;;;;;;;6.38;3.72;;;;;;;;;;5101825;28;20066;-84
2022/07/20 03:57:11;;;;;;;5.25;4.20;;;;;;;;;;5105853;28;20027;-88
2022/07/20 03:59:36;;;;;;;5.70;3.90;;;20.40;97.10;;;;;;5095872;28;20473;-84
2022/07/20 04:02:04;;;;;;;4.72;3.45;;;;;;;;;;5107957;28;20020;-88
2022/07/20 04:04:30;;;;;;;4.38;3.50;;;20.00;93.00;;;;;;5105626;28;20098;-85
2022/07/20 04:06:56;;;;;;;4.65;3.80;;;19.90;75.80;;;;;;5104611;28;20043;-86
2022/07/20 04:12:08;;;;;;;5.88;3.78;;;19.90;77.10;;;;;;5106635;28;20076;-87
2022/07/20 04:14:34;;;;;;;5.63;3.60;;;19.80;77.30;;;;;;5107457;28;20590;-87
2022/07/20 04:16:59;;;;;;;5.43;3.97;;;19.80;77.50;;;;;;5095126;28;20061;-86
2022/07/20 04:19:25;;;;;;;4.35;3.70;;;19.80;77.60;;;;;;5106957;28;20040;-88
2022/07/20 04:21:54;;;;;;;5.80;3.70;;;19.80;77.80;;;;;;5111723;28;20033;-89
2022/07/20 04:24:20;;;;;;;6.70;3.65;;;19.90;78.00;;;;;;5110922;28;20070;-87
2022/07/20 04:26:46;;;;;;;5.72;3.47;;;19.90;77.90;;;;;;5105992;28;20051;-86
2022/07/20 04:29:11;;;;;;;4.75;3.90;;;19.90;78.00;;;;;;5105642;28;20058;-86
2022/07/20 04:31:37;;;;;;;3.78;3.38;;;20.00;78.10;;;;;;5112790;28;20031;-88
2022/07/20 04:34:02;;;;;;;6.80;3.53;;;20.00;78.20;;;;;;5076810;28;20678;-88
2022/07/20 04:36:28;;;;;;;4.35;3.38;;;20.10;78.20;;;;;;5098367;28;20035;-86
2022/07/20 04:38:54;;;;;;;6.40;3.67;;;20.10;78.20;;;;;;5105296;28;20103;-87
2022/07/20 04:41:19;;;;;;;6.53;3.88;;;20.20;78.50;;;;;;5107437;28;20039;-88
2022/07/20 04:43:45;;;;;;;5.70;4.35;;;20.30;78.50;;;;;;5110063;28;20038;-79
2022/07/20 04:46:10;;;;;;;4.90;3.13;;;20.30;78.20;;;;;;5107719;28;20069;-88
2022/07/20 04:48:36;;;;;;;4.40;3.15;;;20.40;78.30;;;;;;5107003;28;20083;-88
2022/07/20 04:51:02;;;;;;;5.00;3.45;;;20.50;78.30;;;;;;5085959;28;20894;-83
2022/07/20 04:53:28;;;;;;;7.68;3.85;;;20.60;78.10;;;;;;5107736;28;20027;-86
2022/07/20 04:55:53;;;;;;;7.10;4.93;;;20.70;77.90;;;;;;5105057;28;20020;-86
2022/07/20 04:58:19;;;;;;;9.07;4.80;;;20.80;78.20;;;;;;5107623;28;20169;-86
2022/07/20 05:00:45;;;;;;;6.72;4.53;;;21.00;77.80;;;;;;5107320;28;20030;-77
2022/07/20 05:03:10;;;;;;;6.05;4.63;;;21.10;77.90;;;;;;5108243;28;20032;-86
2022/07/20 05:05:36;;;;;;;9.45;5.65;;;21.20;78.00;;;;;;5095661;28;20028;-87
2022/07/20 05:08:02;;;;;;;14.00;6.15;;;21.30;77.60;;;;;;5092264;28;20077;-87
2022/07/20 05:10:28;;;;;;;10.38;5.82;;;21.40;77.10;;;;;;5103498;28;20086;-87
2022/07/20 05:12:54;;;;;;;12.57;6.03;;;21.50;76.90;;;;;;5108307;28;20031;-86
2022/07/20 05:15:23;;;;;;;10.85;6.07;;;21.60;76.70;;;;;;5104380;28;20044;-83
2022/07/20 05:17:49;;;;;;;8.10;4.93;;;21.70;76.60;;;;;;5103017;28;20136;-84
2022/07/20 05:20:15;;;;;;;8.73;4.97;;;21.70;76.40;;;;;;5106254;28;20039;-71
2022/07/20 05:22:40;;;;;;;8.77;5.03;;;21.80;76.40;;;;;;5102269;28;20029;-70
2022/07/20 05:25:06;;;;;;;7.68;5.40;;;21.80;76.30;;;;;;5088713;28;20036;-71
2022/07/20 05:27:32;;;;;;;12.40;4.95;;;21.90;76.30;;;;;;5078121;28;20438;-73
2022/07/20 05:29:58;;;;;;;5.53;4.13;;;22.00;76.50;;;;;;5090158;28;20036;-71
2022/07/20 05:32:23;;;;;;;7.25;4.63;;;22.00;76.30;;;;;;5097066;28;20044;-71
2022/07/20 05:34:49;;;;;;;5.40;4.30;;;22.20;76.00;;;;;;5096138;28;20104;-70
2022/07/20 05:37:14;;;;;;;6.05;4.35;;;22.20;76.00;;;;;;5091989;28;20023;-70
2022/07/20 05:39:40;;;;;;;7.50;4.50;;;22.30;75.80;;;;;;5089030;28;20031;-72
2022/07/20 05:42:06;;;;;;;4.97;4.03;;;22.40;75.70;;;;;;5100147;28;20110;-70
2022/07/20 05:44:31;;;;;;;6.35;4.38;;;22.50;75.30;;;;;;5109434;28;20460;-72
2022/07/20 05:46:57;;;;;;;7.45;5.13;;;22.70;75.00;;;;;;5101503;28;20058;-70
2022/07/20 05:49:22;;;;;;;10.35;4.88;;;22.80;74.70;;;;;;5104973;28;20055;-71
2022/07/20 05:51:48;;;;;;;10.00;5.90;;;23.00;74.30;;;;;;5099363;28;20114;-69
2022/07/20 05:54:14;;;;;;;6.07;4.68;;;23.10;74.10;;;;;;5105552;28;20024;-70
2022/07/20 05:56:39;;;;;;;13.27;5.03;;;23.20;74.00;;;;;;5102003;28;20028;-70
2022/07/20 05:59:05;;;;;;;6.45;4.75;;;23.40;74.00;;;;;;5097159;28;20036;-68
2022/07/20 06:01:31;;;;;;;6.35;4.20;;;23.50;73.60;;;;;;5111348;28;20063;-68
2022/07/20 06:03:57;;;;;;;6.30;3.92;;;23.60;73.60;;;;;;5100820;28;20038;-72
2022/07/20 06:06:23;;;;;;;5.78;4.18;;;23.70;73.20;;;;;;5104568;28;20032;-69
2022/07/20 06:08:48;;;;;;;8.15;4.47;;;23.90;72.70;;;;;;5106890;28;20030;-72
2022/07/20 06:11:14;;;;;;;6.82;4.63;;;24.00;71.90;;;;;;5121601;28;20035;-72
2022/07/20 06:13:40;;;;;;;8.93;4.95;;;24.20;71.30;;;;;;5101960;28;20480;-72
2022/07/20 06:16:06;;;;;;;11.00;5.10;;;24.30;70.70;;;;;;5072724;28;20076;-71
2022/07/20 06:18:31;;;;;;;6.95;5.40;;;24.50;70.00;;;;;;5068159;28;20054;-71
2022/07/20 06:20:57;;;;;;;11.50;6.25;;;24.70;70.00;;;;;;5061037;28;20044;-69
2022/07/20 06:23:22;;;;;;;8.90;5.25;;;25.00;70.60;;;;;;5071419;28;20032;-69
2022/07/20 06:25:48;;;;;;;7.80;5.75;;;25.10;70.20;;;;;;5067747;28;20055;-70
2022/07/20 06:28:14;;;;;;;10.80;5.15;;;25.10;70.00;;;;;;5072962;28;20101;-70
2022/07/20 06:30:39;;;;;;;10.93;5.50;;;25.20;69.70;;;;;;5065608;28;20064;-70
2022/07/20 06:33:05;;;;;;;10.65;5.35;;;25.30;69.80;;;;;;5068222;28;20036;-70
2022/07/20 06:35:31;;;;;;;10.02;5.70;;;25.30;69.70;;;;;;5073280;28;20021;-70
2022/07/20 06:37:57;;;;;;;12.88;5.80;;;25.30;69.60;;;;;;5073275;28;20047;-70
2022/07/20 06:40:23;;;;;;;28.52;7.18;;;25.40;69.40;;;;;;5073320;28;20028;-70
2022/07/20 06:42:48;;;;;;;14.35;6.07;;;25.50;69.70;;;;;;5073406;28;20756;-70
2022/07/20 06:45:14;;;;;;;8.63;5.32;;;25.60;68.60;;;;;;5073014;28;20041;-70
2022/07/20 06:47:40;;;;;;;8.73;5.68;;;25.60;68.60;;;;;;5072143;28;20033;-70
2022/07/20 06:50:06;;;;;;;10.43;5.60;;;25.60;68.90;;;;;;5072331;28;20444;-70
2022/07/20 06:52:33;;;;;;;18.05;6.47;;;25.70;69.10;;;;;;5066439;28;20029;-70
2022/07/20 06:54:59;;;;;;;10.20;5.63;;;25.80;68.60;;;;;;5060200;28;20469;-70
2022/07/20 06:57:24;;;;;;;15.23;6.63;;;25.80;69.00;;;;;;5073683;28;20067;-70
2022/07/20 06:59:50;;;;;;;13.50;6.05;;;26.00;68.30;;;;;;5067950;28;20035;-71
2022/07/20 07:02:16;;;;;;;10.30;6.07;;;26.10;68.20;;;;;;5067113;28;20116;-70
2022/07/20 07:04:42;;;;;;;20.98;6.60;;;26.10;68.50;;;;;;5071300;28;20036;-70
2022/07/20 07:07:07;;;;;;;16.02;6.78;;;26.30;68.60;;;;;;5069933;28;20036;-70
2022/07/20 07:09:33;;;;;;;14.25;7.55;;;26.50;68.10;;;;;;5070463;28;20032;-69
2022/07/20 07:11:59;;;;;;;15.93;6.32;;;26.60;68.30;;;;;;5072165;28;20091;-70
2022/07/20 07:14:25;;;;;;;11.63;6.15;;;26.70;69.10;;;;;;5071729;28;20020;-70
2022/07/20 07:16:52;;;;;;;12.88;6.93;;;26.70;69.00;;;;;;5059036;28;20390;-70
2022/07/20 07:19:18;;;;;;;41.03;8.88;;;26.90;67.80;;;;;;5071166;28;20397;-70
2022/07/20 07:21:43;;;;;;;22.10;7.65;;;27.00;67.30;;;;;;5070297;28;20039;-70
2022/07/20 07:24:09;;;;;;;13.85;6.28;;;27.10;67.40;;;;;;5074259;28;20385;-70
2022/07/20 07:26:35;;;;;;;8.93;6.07;;;27.20;67.20;;;;;;5071609;28;20117;-70
2022/07/20 07:29:00;;;;;;;16.30;7.00;;;27.40;67.10;;;;;;5071556;28;20151;-70
2022/07/20 07:31:26;;;;;;;11.25;6.95;;;27.50;66.50;;;;;;5071571;28;20044;-70
2022/07/20 07:33:51;;;;;;;18.23;6.88;;;27.60;66.60;;;;;;5073824;28;20450;-71
2022/07/20 07:36:17;;;;;;;15.57;7.07;;;27.70;66.40;;;;;;5066426;28;20453;-71
2022/07/20 07:38:43;;;;;;;13.32;6.82;;;27.80;65.80;;;;;;5066237;28;20035;-70
2022/07/20 07:41:09;;;;;;;8.75;6.20;;;27.90;65.50;;;;;;5073314;28;20036;-68
2022/07/20 07:43:34;;;;;;;16.02;6.78;;;28.00;65.80;;;;;;5063271;28;20468;-69
2022/07/20 07:46:00;;;;;;;14.70;6.55;;;28.30;65.80;;;;;;5069181;28;20371;-69
2022/07/20 07:48:26;;;;;;;13.38;6.13;;;28.40;65.80;;;;;;5071839;28;20451;-69
2022/07/20 07:50:52;;;;;;;18.67;7.68;;;28.60;65.30;;;;;;5070154;28;20055;-69
2022/07/20 07:53:17;;;;;;;15.25;6.95;;;28.70;65.60;;;;;;5071298;28;20094;-70
2022/07/20 07:55:43;;;;;;;15.15;6.85;;;28.90;64.80;;;;;;5070077;28;20043;-70
2022/07/20 07:58:10;;;;;;;17.08;7.15;;;29.10;64.30;;;;;;5068806;28;20524;-70
2022/07/20 08:00:36;;;;;;;19.63;7.68;;;29.30;64.00;;;;;;5061909;28;20032;-70
2022/07/20 08:03:05;;;;;;;11.30;6.28;;;29.30;64.00;;;;;;5066299;28;20492;-69
2022/07/20 08:05:31;;;;;;;16.27;6.82;;;29.40;63.20;;;;;;5063906;28;20025;-70
2022/07/20 08:07:58;;;;;;;22.15;9.38;;;29.50;63.20;;;;;;5069205;28;20461;-70
2022/07/20 08:10:23;;;;;;;19.98;8.00;;;29.60;63.10;;;;;;5071419;28;20035;-70
2022/07/20 08:12:49;;;;;;;15.43;7.22;;;29.70;63.50;;;;;;5070486;28;20398;-71
2022/07/20 08:15:15;;;;;;;21.30;7.28;;;29.90;62.60;;;;;;5064448;28;20056;-69
2022/07/20 08:17:45;;;;;;;21.73;6.70;;;30.10;62.60;;;;;;5063259;28;20428;-70
2022/07/20 08:20:11;;;;;;;82.10;11.65;;;30.20;61.90;;;;;;5064959;28;20028;-70
2022/07/20 08:22:37;;;;;;;69.00;11.02;;;30.20;61.80;;;;;;5067805;28;20487;-71
2022/07/20 08:25:03;;;;;;;19.40;6.43;;;30.40;61.50;;;;;;5068050;28;20032;-70
2022/07/20 08:27:29;;;;;;;14.40;7.00;;;30.50;61.50;;;;;;5070476;28;20095;-70
2022/07/20 08:29:58;;;;;;;13.70;6.70;;;30.70;61.80;;;;;;5064244;28;20081;-69
2022/07/20 08:32:24;;;;;;;24.20;7.97;;;30.80;61.00;;;;;;5069324;28;20044;-70
2022/07/20 08:34:54;;;;;;;17.45;7.10;;;30.80;61.80;;;;;;5066162;28;20087;-70
2022/07/20 08:37:20;;;;;;;20.27;7.22;;;31.00;61.80;;;;;;5068031;28;20056;-69
2022/07/20 08:39:45;;;;;;;14.77;6.88;;;31.10;61.20;;;;;;5071297;28;20130;-70
2022/07/20 08:42:13;;;;;;;15.50;6.63;;;31.30;61.00;;;;;;5069067;28;20249;-70
2022/07/20 08:44:40;;;;;;;14.23;6.20;;;31.40;60.40;;;;;;5071080;28;20103;-69
2022/07/20 08:47:07;;;;;;;18.88;7.05;;;31.50;60.20;;;;;;5062311;28;20033;-71
2022/07/20 08:49:33;;;;;;;20.65;7.30;;;31.80;59.60;;;;;;5070933;28;20036;-68
2022/07/20 08:51:59;;;;;;;19.95;7.60;;;31.90;59.30;;;;;;5068606;28;20110;-70
2022/07/20 08:54:26;;;;;;;32.13;8.02;;;32.10;59.60;;;;;;5070110;28;20083;-69
2022/07/20 08:56:51;;;;;;;9.57;6.43;;;32.20;59.80;;;;;;5064178;28;20025;-70
2022/07/20 08:59:17;;;;;;;10.95;7.07;;;32.30;59.10;;;;;;5071289;28;20027;-70
2022/07/20 09:02:03;;;;;;;15.23;6.80;;;32.40;58.70;;;;;;5051092;28;20641;-71
2022/07/20 09:04:29;;;;;;;12.63;5.93;;;32.60;59.00;;;;;;5069462;28;20064;-70
2022/07/20 09:06:55;;;;;;;19.85;7.20;;;32.60;58.20;;;;;;5073140;28;20474;-70
2022/07/20 09:09:21;;;;;;;10.27;6.15;;;32.80;56.10;;;;;;5062179;28;20035;-70
2022/07/20 09:11:49;;;;;;;13.18;7.03;;;32.80;56.40;;;;;;5066914;28;20108;-70
2022/07/20 09:14:42;;;;;;;15.82;6.60;;;32.90;56.70;;;;;;5065130;28;20052;-70
2022/07/20 09:17:25;;;;;;;20.48;6.70;;;33.10;56.50;;;;;;5063905;28;20044;-70
2022/07/20 09:20:07;;;;;;;17.83;6.18;;;33.20;54.80;;;;;;5062801;28;20118;-70
2022/07/20 09:22:38;;;;;;;13.43;6.75;;;33.20;55.20;;;;;;5064173;28;20032;-70
2022/07/20 09:25:12;;;;;;;11.40;6.60;;;33.40;55.60;;;;;;5065181;28;20483;-70
2022/07/20 09:27:38;;;;;;;10.05;5.90;;;33.60;55.00;;;;;;5069044;28;20036;-70
2022/07/20 09:30:14;;;;;;;13.52;6.60;;;33.70;54.80;;;;;;5068787;28;20523;-70
2022/07/20 09:33:00;;;;;;;11.55;6.45;;;33.80;54.10;;;;;;5063157;28;20481;-72
2022/07/20 09:35:36;;;;;;;12.43;6.53;;;33.90;54.00;;;;;;5066839;28;20025;-70
2022/07/20 09:38:05;;;;;;;9.35;6.63;;;34.00;53.40;;;;;;5063688;28;20506;-70
2022/07/20 09:40:48;;;;;;;8.55;5.80;;;34.10;54.20;;;;;;5061837;28;20033;-70
2022/07/20 09:43:28;;;;;;;18.25;6.90;;;34.10;53.70;;;;;;5064005;28;20644;-70
2022/07/20 09:45:54;;;;;;;8.98;6.07;;;34.30;52.80;;;;;;5066045;28;20169;-70
2022/07/20 09:48:23;;;;;;;14.32;7.25;;;34.50;51.80;;;;;;5074295;28;20453;-70
2022/07/20 09:50:49;;;;;;;13.07;6.80;;;34.50;51.90;;;;;;5074594;28;20043;-70
2022/07/20 09:53:15;;;;;;;10.52;6.13;;;34.40;52.20;;;;;;5070043;28;20021;-70
2022/07/20 09:55:41;;;;;;;19.05;5.63;;;34.50;50.70;;;;;;5070076;28;20051;-70
2022/07/20 09:58:08;;;;;;;6.60;4.55;;;34.60;49.80;;;;;;5079344;28;20111;-70
2022/07/20 10:00:35;;;;;;;10.18;5.85;;;34.60;49.10;;;;;;5073621;28;20093;-70
2022/07/20 10:03:03;;;;;;;14.98;6.80;;;34.70;48.90;;;;;;5071896;28;20024;-70
2022/07/20 10:05:32;;;;;;;11.95;5.32;;;34.80;50.40;;;;;;5071980;28;20069;-70
2022/07/20 10:08:02;;;;;;;8.52;5.57;;;34.90;49.10;;;;;;5073822;28;20095;-70
2022/07/20 10:10:28;;;;;;;9.35;5.45;;;34.80;48.40;;;;;;5066763;28;20400;-70
2022/07/20 10:12:55;;;;;;;10.13;5.40;;;34.80;49.10;;;;;;5068910;28;20030;-70
2022/07/20 10:15:27;;;;;;;14.10;5.45;;;34.90;49.00;;;;;;5070922;28;20045;-70
2022/07/20 10:17:53;;;;;;;16.85;6.18;;;34.90;48.70;;;;;;5069849;28;20396;-70
2022/07/20 10:20:32;;;;;;;11.88;5.47;;;35.00;48.40;;;;;;5071744;28;20039;-70
2022/07/20 10:23:16;;;;;;;14.10;6.13;;;35.10;49.20;;;;;;5073434;28;20488;-70
2022/07/20 10:25:46;;;;;;;9.38;5.00;;;35.20;48.30;;;;;;5073681;28;20107;-69
2022/07/20 10:28:32;;;;;;;;;;;35.10;48.70;;;;;;5069978;28;20024;-71
2022/07/20 10:31:10;;;;;;;10.23;6.03;;;35.20;48.30;;;;;;5072086;28;19912;-69
2022/07/20 10:33:38;;;;;;;10.00;6.03;;;35.20;48.20;;;;;;5074011;28;20020;-71
2022/07/20 10:38:57;;;;;;;12.45;6.07;;;35.40;48.20;;;;;;5070908;28;20515;-69
2022/07/20 10:41:32;;;;;;;13.45;5.70;;;35.40;48.50;;;;;;5066543;28;20033;-69
2022/07/20 10:44:20;;;;;;;11.18;5.28;;;35.60;48.20;;;;;;5069554;28;20033;-70
2022/07/20 10:46:47;;;;;;;5.82;4.85;;;35.60;48.00;;;;;;5065668;28;20036;-70
2022/07/20 10:49:13;;;;;;;11.52;5.63;;;35.60;48.40;;;;;;5062105;28;20040;-70
2022/07/20 10:51:38;;;;;;;11.40;5.35;;;35.60;47.90;;;;;;5072251;28;20033;-70
2022/07/20 10:54:32;;;;;;;13.10;5.75;;;35.30;48.30;;;;;;5071406;28;20068;-70
2022/07/20 10:56:59;;;;;;;12.82;5.20;;;35.40;48.50;;;;;;5067715;28;20032;-70
2022/07/20 10:59:25;;;;;;;7.47;4.95;;;35.50;48.60;;;;;;5070217;28;20027;-70
2022/07/20 11:01:50;;;;;;;13.77;5.22;;;35.60;48.80;;;;;;5070445;28;20038;-71
2022/07/20 11:04:16;;;;;;;7.75;5.32;;;35.60;49.00;;;;;;5072705;28;20115;-71
2022/07/20 11:06:42;;;;;;;6.88;5.15;;;35.80;48.10;;;;;;5067155;28;20021;-71
2022/07/20 11:09:08;;;;;;;9.05;5.60;;;35.90;48.30;;;;;;5069528;28;20112;-72
2022/07/20 11:11:36;;;;;;;9.07;5.43;;;36.00;48.20;;;;;;5064846;28;20033;-70
2022/07/20 11:14:05;;;;;;;10.65;5.70;;;36.10;49.00;;;;;;5072470;28;20032;-70
2022/07/20 11:16:32;;;;;;;11.77;6.07;;;36.20;48.60;;;;;;5069006;27;20174;-70
2022/07/20 11:18:59;;;;;;;7.28;5.18;;;36.10;47.60;;;;;;5065156;28;20530;-69
2022/07/20 11:21:34;;;;;;;5.70;5.10;;;36.20;47.40;;;;;;5073136;28;20041;-70
2022/07/20 11:24:00;;;;;;;7.70;5.10;;;36.10;47.40;;;;;;5070867;28;20031;-71
2022/07/20 11:26:26;;;;;;;9.30;4.50;;;36.30;48.10;;;;;;5075920;28;20036;-73
2022/07/20 11:28:53;;;;;;;8.85;5.50;;;36.30;46.60;;;;;;5083599;28;20070;-71
2022/07/20 11:31:23;;;;;;;7.65;5.30;;;36.40;47.10;;;;;;5063388;28;20040;-71
2022/07/20 11:33:50;;;;;;;11.52;6.43;;;36.40;47.00;;;;;;5069882;28;20029;-70
2022/07/20 11:36:17;;;;;;;7.57;4.88;;;36.40;46.30;;;;;;5069187;28;20028;-70
2022/07/20 11:38:48;;;;;;;9.00;5.68;;;36.50;47.10;;;;;;5071292;28;20034;-71
2022/07/20 11:41:17;;;;;;;8.40;5.53;;;36.60;47.20;;;;;;5071902;28;20024;-70
2022/07/20 11:43:42;;;;;;;11.27;5.72;;;36.70;47.60;;;;;;5072085;28;20027;-71
2022/07/20 11:46:41;;;;;;;7.82;5.40;;;36.70;47.80;;;;;;5069827;28;20028;-71
2022/07/20 11:49:13;;;;;;;6.82;5.40;;;36.70;46.90;;;;;;5066361;28;20462;-71
2022/07/20 11:51:40;;;;;;;9.32;5.38;;;36.60;48.50;;;;;;5071455;28;20043;-72
2022/07/20 11:54:09;;;;;;;9.73;5.25;;;36.60;47.90;;;;;;5060316;28;20454;-71
2022/07/20 11:56:37;;;;;;;9.83;5.63;;;36.70;47.70;;;;;;5071777;28;20090;-71
2022/07/20 11:59:07;;;;;;;9.32;5.32;;;36.80;47.20;;;;;;5070119;28;20029;-71
2022/07/20 12:01:36;;;;;;;12.90;6.00;;;36.90;47.40;;;;;;5069930;28;20413;-71
2022/07/20 12:04:14;;;;;;;7.37;5.63;;;37.00;47.60;;;;;;5070660;28;20036;-71
2022/07/20 12:06:41;;;;;;;8.05;5.90;;;37.00;46.70;;;;;;5069667;28;20040;-70
2022/07/20 12:09:16;;;;;;;9.98;5.80;;;37.10;47.00;;;;;;5065197;28;20047;-71
2022/07/20 12:11:57;;;;;;;9.75;5.63;;;36.90;46.90;;;;;;5069905;28;20048;-71
2022/07/20 12:14:41;;;;;;;9.32;5.57;;;36.90;46.90;;;;;;5067250;28;20048;-71
2022/07/20 12:17:20;;;;;;;10.90;5.75;;;37.00;47.20;;;;;;5046482;28;20481;-72
2022/07/20 12:19:49;;;;;;;16.17;5.95;;;37.00;47.00;;;;;;5067597;28;20086;-71
2022/07/20 12:22:19;;;;;;;7.78;5.80;;;37.00;47.40;;;;;;5057715;28;20733;-71
2022/07/20 12:24:56;;;;;;;7.10;5.70;;;37.10;47.20;;;;;;5065114;28;20462;-71
2022/07/20 12:27:28;;;;;;;12.18;6.25;;;37.20;47.00;;;;;;5058583;28;20427;-70
2022/07/20 12:29:54;;;;;;;7.90;5.00;;;37.10;46.90;;;;;;5074594;28;20410;-71
2022/07/20 12:32:35;;;;;;;11.18;6.22;;;37.20;47.60;;;;;;5069939;28;20033;-71
2022/07/20 12:35:06;;;;;;;9.25;6.30;;;37.30;48.20;;;;;;5066173;28;20024;-71
2022/07/20 12:37:48;;;;;;;6.63;5.97;;;37.50;47.60;;;;;;5068974;28;20028;-70
2022/07/20 12:40:49;;;;;;;7.93;5.40;;;37.60;46.90;;;;;;5059238;28;20033;-71
2022/07/20 12:43:36;;;;;;;9.10;6.13;;;37.70;47.30;;;;;;5070362;28;20039;-71
2022/07/20 12:46:15;;;;;;;8.82;6.47;;;37.80;47.20;;;;;;5072939;28;20028;-71
2022/07/20 12:48:44;;;;;;;10.13;6.57;;;37.60;48.30;;;;;;5072937;28;20063;-70
2022/07/20 12:51:11;;;;;;;12.68;6.88;;;37.10;48.40;;;;;;5073360;28;20045;-71
2022/07/20 12:53:38;;;;;;;10.52;6.55;;;36.90;48.80;;;;;;5067964;28;20375;-70
2022/07/20 12:56:05;;;;;;;9.07;7.10;;;36.60;49.20;;;;;;5072961;28;20103;-70